createdAt,value
2023-10-15T00:02:00.570Z,63.30
2023-10-15T00:04:28.953Z,63.30
2023-10-15T00:06:57.176Z,63.30
2023-10-15T00:09:25.321Z,63.30
2023-10-15T00:11:53.542Z,63.30
2023-10-15T00:14:21.722Z,63.30
2023-10-15T00:16:52.026Z,63.10
2023-10-15T00:19:20.404Z,63.30
2023-10-15T00:21:48.978Z,63.20
2023-10-15T00:24:17.133Z,63.20
2023-10-15T00:26:45.597Z,63.30
2023-10-15T00:29:15.526Z,63.20
2023-10-15T00:31:44.144Z,63.20
2023-10-15T00:34:14.344Z,63.10
2023-10-15T00:36:42.566Z,63.10
2023-10-15T00:39:22.228Z,63.00
2023-10-15T00:41:50.415Z,63.00
2023-10-15T00:44:18.631Z,63.00
2023-10-15T00:46:55.760Z,63.00
2023-10-15T00:49:27.561Z,62.90
2023-10-15T00:51:57.347Z,62.80
2023-10-15T00:54:26.253Z,62.80
2023-10-15T00:56:56.146Z,62.80
2023-10-15T00:59:35.671Z,62.80
2023-10-15T01:02:05.927Z,62.90
2023-10-15T01:04:37.242Z,62.80
2023-10-15T01:07:22.156Z,62.80
2023-10-15T01:09:50.383Z,62.80
2023-10-15T01:12:25.031Z,62.80
2023-10-15T01:14:53.182Z,62.70
2023-10-15T01:17:24.898Z,62.70
2023-10-15T01:19:54.926Z,62.70
2023-10-15T01:22:25.555Z,62.70
2023-10-15T01:24:55.452Z,62.60
2023-10-15T01:27:29.108Z,62.60
2023-10-15T01:30:00.200Z,62.60
2023-10-15T01:32:32.323Z,62.70
2023-10-15T01:35:02.396Z,62.60
2023-10-15T01:37:31.602Z,62.60
2023-10-15T01:40:22.433Z,62.60
2023-10-15T01:42:55.243Z,62.60
2023-10-15T01:45:32.589Z,62.50
2023-10-15T01:48:06.982Z,62.50
2023-10-15T01:50:46.972Z,62.60
2023-10-15T01:53:15.284Z,62.40
2023-10-15T01:56:02.166Z,62.40
2023-10-15T01:58:33.896Z,62.40
2023-10-15T02:01:15.376Z,62.40
2023-10-15T02:03:43.932Z,62.50
2023-10-15T02:06:12.297Z,62.40
2023-10-15T02:08:41.301Z,62.50
2023-10-15T02:11:22.459Z,62.40
2023-10-15T02:13:51.177Z,62.40
2023-10-15T02:16:27.063Z,62.40
2023-10-15T02:18:59.663Z,62.40
2023-10-15T02:21:32.635Z,62.40
2023-10-15T02:24:10.060Z,62.30
2023-10-15T02:26:40.271Z,62.30
2023-10-15T02:29:23.375Z,62.30
2023-10-15T02:31:51.686Z,62.30
2023-10-15T02:34:26.447Z,62.20
2023-10-15T02:36:55.166Z,62.20
2023-10-15T02:39:25.079Z,62.20
2023-10-15T02:41:54.973Z,62.20
2023-10-15T02:44:23.987Z,62.20
2023-10-15T02:47:07.489Z,62.20
2023-10-15T02:49:51.402Z,62.20
2023-10-15T02:52:21.504Z,62.20
2023-10-15T02:54:50.222Z,62.20
2023-10-15T02:57:21.952Z,62.10
2023-10-15T02:59:52.848Z,62.20
2023-10-15T03:02:22.546Z,62.20
2023-10-15T03:04:56.791Z,62.20
2023-10-15T03:07:31.456Z,62.10
2023-10-15T03:10:00.283Z,62.20
2023-10-15T03:12:34.677Z,62.20
2023-10-15T03:15:03.566Z,62.20
2023-10-15T03:17:31.993Z,62.20
2023-10-15T03:20:12.017Z,62.20
2023-10-15T03:22:40.205Z,62.30
2023-10-15T03:25:14.413Z,62.20
2023-10-15T03:27:47.769Z,62.40
2023-10-15T03:30:16.321Z,62.30
2023-10-15T03:32:46.626Z,62.30
2023-10-15T03:35:17.918Z,62.20
2023-10-15T03:37:48.461Z,62.20
2023-10-15T03:40:31.557Z,62.20
2023-10-15T03:43:05.571Z,62.20
2023-10-15T03:45:40.561Z,62.30
2023-10-15T03:48:16.152Z,62.20
2023-10-15T03:50:54.893Z,62.30
2023-10-15T03:53:29.029Z,62.30
2023-10-15T03:55:58.686Z,62.20
2023-10-15T03:58:28.739Z,62.20
2023-10-15T04:01:13.281Z,62.10
2023-10-15T04:03:44.469Z,62.20
2023-10-15T04:06:14.748Z,62.30
2023-10-15T04:09:01.025Z,62.30
2023-10-15T04:11:32.056Z,62.30
2023-10-15T04:14:05.409Z,62.00
2023-10-15T04:16:35.485Z,62.00
2023-10-15T04:19:03.771Z,62.00
2023-10-15T04:21:31.927Z,62.10
2023-10-15T04:24:00.270Z,62.20
2023-10-15T04:26:31.323Z,61.80
2023-10-15T04:29:08.024Z,62.00
2023-10-15T04:31:37.801Z,62.00
2023-10-15T04:34:06.118Z,61.90
2023-10-15T04:36:41.778Z,61.90
2023-10-15T04:39:13.869Z,61.90
2023-10-15T04:41:42.550Z,61.80
2023-10-15T04:44:21.237Z,61.80
2023-10-15T04:46:53.937Z,61.70
2023-10-15T04:49:23.949Z,61.60
2023-10-15T04:51:54.355Z,61.60
2023-10-15T04:54:24.832Z,61.60
2023-10-15T04:56:55.821Z,61.50
2023-10-15T04:59:26.483Z,61.50
2023-10-15T05:01:54.652Z,61.50
2023-10-15T05:04:22.920Z,61.40
2023-10-15T05:06:51.232Z,61.40
2023-10-15T05:09:23.228Z,61.40
2023-10-15T05:11:52.318Z,61.40
2023-10-15T05:14:20.756Z,61.60
2023-10-15T05:16:50.330Z,61.60
2023-10-15T05:19:18.921Z,61.60
2023-10-15T05:21:47.930Z,61.60
2023-10-15T05:24:20.018Z,61.60
2023-10-15T05:26:51.387Z,61.50
2023-10-15T05:29:19.678Z,61.60
2023-10-15T05:31:47.870Z,61.60
2023-10-15T05:34:19.409Z,61.60
2023-10-15T05:36:49.204Z,61.70
2023-10-15T05:39:19.589Z,61.60
2023-10-15T05:41:47.753Z,61.60
2023-10-15T05:44:15.914Z,61.60
2023-10-15T05:46:44.193Z,61.60
2023-10-15T05:49:12.885Z,61.50
2023-10-15T05:51:42.442Z,61.60
2023-10-15T05:54:11.157Z,61.60
2023-10-15T05:56:39.235Z,61.60
2023-10-15T05:59:07.631Z,61.60
2023-10-15T06:01:36.039Z,61.60
2023-10-15T06:04:05.567Z,61.60
2023-10-15T06:06:34.725Z,61.50
2023-10-15T06:09:06.417Z,61.80
2023-10-15T06:11:35.356Z,61.60
2023-10-15T06:14:05.788Z,61.60
2023-10-15T06:16:34.758Z,61.70
2023-10-15T06:19:03.063Z,61.60
2023-10-15T06:21:31.311Z,61.30
2023-10-15T06:23:59.460Z,61.20
2023-10-15T06:26:30.058Z,61.20
2023-10-15T06:28:58.343Z,61.20
2023-10-15T06:31:27.442Z,61.20
2023-10-15T06:33:56.689Z,61.30
2023-10-15T06:36:25.347Z,61.30
2023-10-15T06:38:54.810Z,61.30
2023-10-15T06:41:23.335Z,61.20
2023-10-15T06:43:54.020Z,61.20
2023-10-15T06:46:25.222Z,61.20
2023-10-15T06:48:54.958Z,61.20
2023-10-15T06:51:23.731Z,61.10
2023-10-15T06:53:52.242Z,61.10
2023-10-15T06:56:20.855Z,61.00
2023-10-15T06:58:49.553Z,60.90
2023-10-15T07:01:20.150Z,61.00
2023-10-15T07:03:48.857Z,60.80
2023-10-15T07:06:20.747Z,60.80
2023-10-15T07:08:51.114Z,60.80
2023-10-15T07:11:19.433Z,60.80
2023-10-15T07:13:48.162Z,60.80
2023-10-15T07:16:20.855Z,61.00
2023-10-15T07:18:50.814Z,61.00
2023-10-15T07:21:21.192Z,61.20
2023-10-15T07:23:52.479Z,61.30
2023-10-15T07:26:20.875Z,61.30
2023-10-15T07:28:50.424Z,61.30
2023-10-15T07:31:20.700Z,61.30
2023-10-15T07:33:50.994Z,61.30
2023-10-15T07:36:20.526Z,61.30
2023-10-15T07:38:48.782Z,61.40
2023-10-15T07:41:20.300Z,61.20
2023-10-15T07:43:48.641Z,61.50
2023-10-15T07:46:17.877Z,61.50
2023-10-15T07:48:46.747Z,61.60
2023-10-15T07:51:16.654Z,61.60
2023-10-15T07:53:44.845Z,61.60
2023-10-15T07:56:15.971Z,61.60
2023-10-15T07:58:44.231Z,61.60
2023-10-15T08:01:13.217Z,61.60
2023-10-15T08:03:41.786Z,61.60
2023-10-15T08:06:10.365Z,61.60
2023-10-15T08:08:40.174Z,61.60
2023-10-15T08:11:08.377Z,61.60
2023-10-15T08:13:36.641Z,61.60
2023-10-15T08:16:06.031Z,61.60
2023-10-15T08:18:34.337Z,61.50
2023-10-15T08:21:02.513Z,61.50
2023-10-15T08:23:30.692Z,61.50
2023-10-15T08:26:00.411Z,61.60
2023-10-15T08:28:28.631Z,61.40
2023-10-15T08:30:58.934Z,61.60
2023-10-15T08:33:27.175Z,61.60
2023-10-15T08:35:55.338Z,61.70
2023-10-15T08:38:24.214Z,61.60
2023-10-15T08:40:54.909Z,61.70
2023-10-15T08:43:29.137Z,61.40
2023-10-15T08:46:00.919Z,61.60
2023-10-15T08:48:31.323Z,61.60
2023-10-15T08:51:03.120Z,61.50
2023-10-15T08:53:33.066Z,61.30
2023-10-15T08:56:02.523Z,61.50
2023-10-15T08:58:33.954Z,61.30
2023-10-15T09:01:03.559Z,61.40
2023-10-15T09:03:33.006Z,61.40
2023-10-15T09:06:06.658Z,61.30
2023-10-15T09:08:36.637Z,61.20
2023-10-15T09:11:05.352Z,61.30
2023-10-15T09:13:37.862Z,61.50
2023-10-15T09:16:07.245Z,61.50
2023-10-15T09:18:37.284Z,61.60
2023-10-15T09:21:06.545Z,61.60
2023-10-15T09:23:36.628Z,61.60
2023-10-15T09:26:07.153Z,61.20
2023-10-15T09:28:37.754Z,61.40
2023-10-15T09:31:07.181Z,61.60
2023-10-15T09:33:36.258Z,61.60
2023-10-15T09:36:06.382Z,61.40
2023-10-15T09:38:35.609Z,61.60
2023-10-15T09:41:04.576Z,61.70
2023-10-15T09:43:37.133Z,61.70
2023-10-15T09:46:08.747Z,61.60
2023-10-15T09:48:38.829Z,61.70
2023-10-15T09:51:08.945Z,61.60
2023-10-15T09:53:37.828Z,61.60
2023-10-15T09:56:09.553Z,61.60
2023-10-15T09:58:39.261Z,61.60
2023-10-15T10:01:18.395Z,61.60
2023-10-15T10:04:20.043Z,61.60
2023-10-15T10:07:29.176Z,61.60
2023-10-15T10:10:25.865Z,61.50
2023-10-15T10:13:22.475Z,61.30
2023-10-15T10:15:55.763Z,61.30
2023-10-15T10:18:28.401Z,61.50
2023-10-15T10:20:57.840Z,61.00
2023-10-15T10:23:38.611Z,61.40
2023-10-15T10:26:15.243Z,61.30
2023-10-15T10:28:43.574Z,61.30
2023-10-15T10:31:12.825Z,61.20
2023-10-15T10:33:51.201Z,61.10
2023-10-15T10:36:21.141Z,60.90
2023-10-15T10:39:01.060Z,60.60
2023-10-15T10:41:41.053Z,59.80
2023-10-15T10:44:26.030Z,59.50
2023-10-15T10:46:57.571Z,58.70
2023-10-15T10:49:35.560Z,58.30
2023-10-15T10:52:15.496Z,58.00
2023-10-15T10:54:44.382Z,57.90
2023-10-15T10:57:12.817Z,58.00
2023-10-15T10:59:43.422Z,58.40
2023-10-15T11:02:15.940Z,58.60
2023-10-15T11:04:45.891Z,58.90
2023-10-15T11:07:15.515Z,59.10
2023-10-15T11:09:44.361Z,59.30
2023-10-15T11:12:13.443Z,59.50
2023-10-15T11:14:42.579Z,59.70
2023-10-15T11:17:11.346Z,59.70
2023-10-15T11:19:41.155Z,59.80
2023-10-15T11:22:11.344Z,59.90
2023-10-15T11:24:40.103Z,60.10
2023-10-15T11:27:13.817Z,60.20
2023-10-15T11:29:45.117Z,60.30
2023-10-15T11:32:14.143Z,59.90
2023-10-15T11:34:42.916Z,60.30
2023-10-15T11:37:17.403Z,60.30
2023-10-15T11:39:49.022Z,60.40
2023-10-15T11:42:20.825Z,60.70
2023-10-15T11:44:56.772Z,60.30
2023-10-15T11:47:28.715Z,60.00
2023-10-15T11:49:58.080Z,59.60
2023-10-15T11:52:27.985Z,60.00
2023-10-15T11:54:58.759Z,60.00
2023-10-15T11:57:28.663Z,59.90
2023-10-15T11:59:59.385Z,59.90
2023-10-15T12:02:30.863Z,60.00
2023-10-15T12:05:02.932Z,59.80
2023-10-15T12:07:33.078Z,59.90
2023-10-15T12:10:04.100Z,60.00
2023-10-15T12:12:33.407Z,60.10
2023-10-15T12:15:02.371Z,60.40
2023-10-15T12:17:30.602Z,60.20
2023-10-15T12:20:18.966Z,60.60
2023-10-15T12:22:48.725Z,60.40
2023-10-15T12:25:17.056Z,60.40
2023-10-15T12:27:45.332Z,60.50
2023-10-15T12:30:24.497Z,61.30
2023-10-15T12:32:52.572Z,61.40
2023-10-15T12:35:21.515Z,61.20
2023-10-15T12:37:55.554Z,61.10
2023-10-15T12:40:25.285Z,61.10
2023-10-15T12:42:54.211Z,60.90
2023-10-15T12:45:23.270Z,60.80
2023-10-15T12:47:51.633Z,60.40
2023-10-15T12:50:22.746Z,60.10
2023-10-15T12:52:54.201Z,60.20
2023-10-15T12:55:22.449Z,60.20
2023-10-15T12:57:51.558Z,60.20
2023-10-15T13:00:22.540Z,60.30
2023-10-15T13:02:53.098Z,60.40
2023-10-15T13:05:22.927Z,60.30
2023-10-15T13:07:54.457Z,60.10
2023-10-15T13:10:23.528Z,60.00
2023-10-15T13:12:52.941Z,59.90
2023-10-15T13:15:22.860Z,59.80
2023-10-15T13:17:55.695Z,59.80
2023-10-15T13:20:25.051Z,59.60
2023-10-15T13:22:55.167Z,59.40
2023-10-15T13:25:24.749Z,59.40
2023-10-15T13:27:53.070Z,59.50
2023-10-15T13:30:23.651Z,59.70
2023-10-15T13:32:52.066Z,59.40
2023-10-15T13:35:20.680Z,59.20
2023-10-15T13:37:49.711Z,59.30
2023-10-15T13:40:22.688Z,59.30
2023-10-15T13:42:50.987Z,58.70
2023-10-15T13:45:20.420Z,58.80
2023-10-15T13:47:49.992Z,58.60
2023-10-15T13:50:19.803Z,59.10
2023-10-15T13:52:49.494Z,59.20
2023-10-15T13:55:20.293Z,58.90
2023-10-15T13:57:53.667Z,58.90
2023-10-15T14:00:25.149Z,58.70
2023-10-15T14:02:57.644Z,58.80
2023-10-15T14:05:28.718Z,58.80
2023-10-15T14:07:58.806Z,58.70
2023-10-15T14:10:28.626Z,58.60
2023-10-15T14:13:09.463Z,58.60
2023-10-15T14:15:45.399Z,58.40
2023-10-15T14:18:13.715Z,58.30
2023-10-15T14:20:41.949Z,58.30
2023-10-15T14:23:10.676Z,58.20
2023-10-15T14:25:41.249Z,58.10
2023-10-15T14:28:10.527Z,58.00
2023-10-15T14:30:38.819Z,57.80
2023-10-15T14:33:07.269Z,57.80
2023-10-15T14:35:37.295Z,57.70
2023-10-15T14:38:06.907Z,57.80
2023-10-15T14:40:37.322Z,57.80
2023-10-15T14:43:08.382Z,57.80
2023-10-15T14:45:38.226Z,57.80
2023-10-15T14:48:07.307Z,57.50
2023-10-15T14:50:38.066Z,57.40
2023-10-15T14:53:07.245Z,57.40
2023-10-15T14:55:36.141Z,57.40
2023-10-15T14:58:07.451Z,57.20
2023-10-15T15:00:37.198Z,57.40
2023-10-15T15:03:08.810Z,57.60
2023-10-15T15:05:37.352Z,57.60
2023-10-15T15:08:06.429Z,57.50
2023-10-15T15:10:36.691Z,57.50
2023-10-15T15:13:05.310Z,57.50
2023-10-15T15:15:33.466Z,57.60
2023-10-15T15:18:03.171Z,57.50
2023-10-15T15:20:31.398Z,57.50
2023-10-15T15:22:59.678Z,57.60
2023-10-15T15:25:30.644Z,57.30
2023-10-15T15:27:59.805Z,57.80
2023-10-15T15:30:28.094Z,57.80
2023-10-15T15:32:56.902Z,58.00
2023-10-15T15:35:27.302Z,58.40
2023-10-15T15:37:55.625Z,58.10
2023-10-15T15:40:23.842Z,58.00
2023-10-15T15:42:52.021Z,58.70
2023-10-15T15:45:20.425Z,58.80
2023-10-15T15:47:52.216Z,59.00
2023-10-15T15:50:20.693Z,59.10
2023-10-15T15:52:50.316Z,59.10
2023-10-15T15:55:18.500Z,59.30
2023-10-15T15:57:46.686Z,59.30
2023-10-15T16:00:16.816Z,59.40
2023-10-15T16:02:45.319Z,59.50
2023-10-15T16:05:15.712Z,59.60
2023-10-15T16:07:44.514Z,63.60
2023-10-15T16:10:14.598Z,62.30
2023-10-15T16:12:42.798Z,61.70
2023-10-15T16:15:11.215Z,62.00
2023-10-15T16:17:39.467Z,62.00
2023-10-15T16:20:10.246Z,62.00
2023-10-15T16:22:39.328Z,62.00
2023-10-15T16:25:09.202Z,62.00
2023-10-15T16:27:40.174Z,62.00
2023-10-15T16:30:10.546Z,62.00
2023-10-15T16:32:39.656Z,62.00
2023-10-15T16:35:09.936Z,62.00
2023-10-15T16:37:38.453Z,62.00
2023-10-15T16:40:10.072Z,62.00
2023-10-15T16:42:39.896Z,62.00
2023-10-15T16:45:09.240Z,62.10
2023-10-15T16:47:39.200Z,62.10
2023-10-15T16:50:10.720Z,62.10
2023-10-15T16:52:39.540Z,62.10
2023-10-15T16:55:09.400Z,62.30
2023-10-15T16:57:42.104Z,62.50
2023-10-15T17:00:12.330Z,62.50
2023-10-15T17:02:41.305Z,62.50
2023-10-15T17:05:10.366Z,62.60
2023-10-15T17:07:38.569Z,62.70
2023-10-15T17:10:09.038Z,62.70
2023-10-15T17:12:39.483Z,62.70
2023-10-15T17:15:13.135Z,62.70
2023-10-15T17:17:42.367Z,62.80
2023-10-15T17:20:12.600Z,62.70
2023-10-15T17:22:40.912Z,62.80
2023-10-15T17:25:09.970Z,62.90
2023-10-15T17:27:39.566Z,62.90
2023-10-15T17:32:41.856Z,62.90
2023-10-15T17:35:10.476Z,62.90
2023-10-15T17:37:38.794Z,62.80
2023-10-15T17:40:07.867Z,62.90
2023-10-15T17:42:37.618Z,62.90
2023-10-15T17:45:08.546Z,62.80
2023-10-15T17:47:36.883Z,62.90
2023-10-15T17:50:05.345Z,62.90
2023-10-15T17:52:33.528Z,62.80
2023-10-15T17:55:02.671Z,62.80
2023-10-15T17:57:31.752Z,62.90
2023-10-15T18:00:00.049Z,62.90
2023-10-15T18:02:29.624Z,62.90
2023-10-15T18:04:57.899Z,62.90
2023-10-15T18:07:27.246Z,62.90
2023-10-15T18:09:55.445Z,63.00
2023-10-15T18:12:24.269Z,63.00
2023-10-15T18:14:53.796Z,63.00
2023-10-15T18:17:22.745Z,63.00
2023-10-15T18:19:52.925Z,63.00
2023-10-15T18:22:21.722Z,63.00
2023-10-15T18:24:50.340Z,63.00
2023-10-15T18:27:18.928Z,63.00
2023-10-15T18:29:47.406Z,63.00
2023-10-15T18:32:18.466Z,63.00
2023-10-15T18:34:47.142Z,63.10
2023-10-15T18:37:16.861Z,63.10
2023-10-15T18:39:45.172Z,63.20
2023-10-15T18:42:15.598Z,63.20
2023-10-15T18:44:44.087Z,63.20
2023-10-15T18:47:12.259Z,63.20
2023-10-15T18:49:41.187Z,63.20
2023-10-15T18:52:10.242Z,63.20
2023-10-15T18:54:40.801Z,63.20
2023-10-15T18:57:09.708Z,63.20
2023-10-15T18:59:38.806Z,63.30
2023-10-15T19:02:08.152Z,63.20
2023-10-15T19:04:37.160Z,63.30
2023-10-15T19:07:07.120Z,63.30
2023-10-15T19:09:36.749Z,63.30
2023-10-15T19:12:08.938Z,63.30
2023-10-15T19:14:37.717Z,63.30
2023-10-15T19:17:06.579Z,63.30
2023-10-15T19:19:35.798Z,63.30
2023-10-15T19:22:04.827Z,63.30
2023-10-15T19:24:33.558Z,63.30
2023-10-15T19:27:01.864Z,63.30
2023-10-15T19:29:31.647Z,63.30
2023-10-15T19:31:59.895Z,63.40
2023-10-15T19:34:28.959Z,63.40
2023-10-15T19:36:57.239Z,63.40
2023-10-15T19:39:25.556Z,63.40
2023-10-15T19:41:53.872Z,63.40
2023-10-15T19:44:22.131Z,63.50
2023-10-15T19:46:51.823Z,63.50
2023-10-15T19:49:20.109Z,63.50
2023-10-15T19:51:48.334Z,63.50
2023-10-15T19:54:17.367Z,63.50
2023-10-15T19:56:45.625Z,63.60
2023-10-15T19:59:13.998Z,63.60
2023-10-15T20:01:42.396Z,63.60
2023-10-15T20:04:12.280Z,63.60
2023-10-15T20:06:40.662Z,63.60
2023-10-15T20:09:12.228Z,63.70
2023-10-15T20:11:40.654Z,63.60
2023-10-15T20:14:09.017Z,63.70
2023-10-15T20:16:37.850Z,63.70
2023-10-15T20:19:06.725Z,63.70
2023-10-15T20:21:37.442Z,63.70
2023-10-15T20:24:07.082Z,63.70
2023-10-15T20:26:35.430Z,63.70
2023-10-15T20:29:04.112Z,63.70
2023-10-15T20:31:32.429Z,63.70
2023-10-15T20:34:01.432Z,63.70
2023-10-15T20:36:29.806Z,63.70
2023-10-15T20:38:59.456Z,63.70
2023-10-15T20:41:27.632Z,63.70
2023-10-15T20:43:56.162Z,63.80
2023-10-15T20:46:24.402Z,63.80
2023-10-15T20:48:52.651Z,63.80
2023-10-15T20:51:21.000Z,63.80
2023-10-15T20:53:49.182Z,63.90
2023-10-15T20:56:18.758Z,63.90
2023-10-15T20:58:47.010Z,63.90
2023-10-15T21:01:15.316Z,63.90
2023-10-15T21:03:43.711Z,63.90
2023-10-15T21:06:13.201Z,63.90
2023-10-15T21:08:41.461Z,63.90
2023-10-15T21:11:10.073Z,63.90
2023-10-15T21:13:40.665Z,69.40
2023-10-15T21:16:09.716Z,66.20
2023-10-15T21:18:40.251Z,65.90
2023-10-15T21:21:08.506Z,65.40
2023-10-15T21:23:36.935Z,65.20
2023-10-15T21:26:05.430Z,65.10
2023-10-15T21:28:33.676Z,65.10
2023-10-15T21:31:04.657Z,65.00
2023-10-15T21:33:32.962Z,65.00
2023-10-15T21:36:01.272Z,64.90
2023-10-15T21:38:29.692Z,64.90
2023-10-15T21:40:58.237Z,64.90
2023-10-15T21:43:26.617Z,64.80
2023-10-15T21:45:54.945Z,64.70
2023-10-15T21:48:25.656Z,64.70
2023-10-15T21:50:53.995Z,64.70
2023-10-15T21:53:22.172Z,64.60
2023-10-15T21:55:50.371Z,64.60
2023-10-15T21:58:20.577Z,64.60
2023-10-15T22:00:52.230Z,64.60
2023-10-15T22:03:20.852Z,64.40
2023-10-15T22:05:50.463Z,64.40
2023-10-15T22:08:18.650Z,64.40
2023-10-15T22:10:46.827Z,64.40
2023-10-15T22:13:19.553Z,64.40
2023-10-15T22:15:48.840Z,64.40
2023-10-15T22:18:17.124Z,64.30
2023-10-15T22:20:48.127Z,64.30
2023-10-15T22:23:22.151Z,64.30
2023-10-15T22:25:52.659Z,64.30
2023-10-15T22:28:26.544Z,64.30
2023-10-15T22:30:56.331Z,64.10
2023-10-15T22:33:25.763Z,64.10
2023-10-15T22:35:54.986Z,64.10
2023-10-15T22:38:24.520Z,64.10
2023-10-15T22:40:53.261Z,64.10
2023-10-15T22:43:22.651Z,64.10
2023-10-15T22:45:50.910Z,64.10
2023-10-15T22:48:19.201Z,64.10
2023-10-15T22:50:47.723Z,64.10
2023-10-15T22:53:17.986Z,64.00
2023-10-15T22:55:47.857Z,64.00
2023-10-15T22:58:19.198Z,64.00
2023-10-15T23:00:51.435Z,63.90
2023-10-15T23:03:20.442Z,63.80
2023-10-15T23:05:50.412Z,63.70
2023-10-15T23:08:19.602Z,63.70
2023-10-15T23:10:49.563Z,63.70
2023-10-15T23:13:19.062Z,63.60
2023-10-15T23:15:48.572Z,63.60
2023-10-15T23:18:21.807Z,63.50
2023-10-15T23:20:53.408Z,63.50
2023-10-15T23:23:22.319Z,63.40
2023-10-15T23:25:54.226Z,63.40
2023-10-15T23:28:25.628Z,63.30
2023-10-15T23:30:57.813Z,63.30
2023-10-15T23:33:29.845Z,63.30
2023-10-15T23:35:59.387Z,63.20
2023-10-15T23:38:27.603Z,63.20
2023-10-15T23:40:57.112Z,63.10
2023-10-15T23:43:25.536Z,63.10
2023-10-15T23:45:56.457Z,63.10
2023-10-15T23:48:28.946Z,63.10
2023-10-15T23:50:58.532Z,63.10
2023-10-15T23:53:35.402Z,63.10
2023-10-15T23:56:12.970Z,63.10
2023-10-15T23:58:43.895Z,63.10
